Time;durP1;ratioP1;P1;durP2;ratioP2;P2;SDS_P1;SDS_P2;PMS_P1;PMS_P2;Temp;Humidity;BMP_temperature;BMP_pressure;BME280_temperature;BME280_humidity;BME280_pressure;Samples;Min_cycle;Max_cycle;Signal;HPM_P1;HPM_P2
2021/12/08 00:00:32;;;;;;;12.73;4.43;;;4.10;99.90;;;;;;5088470;28;20052;-70
2021/12/08 00:03:00;;;;;;;10.75;4.50;;;3.80;99.90;;;;;;5085556;28;20044;-71
2021/12/08 00:05:27;;;;;;;10.68;4.57;;;3.60;99.90;;;;;;5086317;28;20055;-71
2021/12/08 00:07:53;;;;;;;10.52;5.10;;;3.60;99.90;;;;;;5086235;28;20133;-71
2021/12/08 00:13:04;;;;;;;9.30;4.70;;;3.50;99.90;;;;;;5086275;28;20051;-71
2021/12/08 00:15:36;;;;;;;12.68;4.90;;;3.40;99.90;;;;;;5087684;28;20087;-72
2021/12/08 00:18:04;;;;;;;13.05;4.53;;;3.40;99.90;;;;;;5072168;28;20054;-72
2021/12/08 00:20:33;;;;;;;10.73;5.40;;;3.30;99.90;;;;;;5082654;28;20046;-70
2021/12/08 00:23:04;;;;;;;10.57;4.57;;;3.50;99.90;;;;;;5082201;28;20093;-71
2021/12/08 00:25:30;;;;;;;12.40;4.95;;;3.20;99.90;;;;;;5082651;28;21512;-71
2021/12/08 00:27:57;;;;;;;11.23;4.82;;;3.50;99.90;;;;;;5065282;28;20052;-71
2021/12/08 00:30:24;;;;;;;10.98;4.00;;;3.10;99.90;;;;;;5088415;28;20060;-71
2021/12/08 00:32:51;;;;;;;12.55;4.50;;;3.10;99.90;;;;;;5080215;28;20036;-71
2021/12/08 00:35:17;;;;;;;9.90;4.72;;;3.10;99.90;;;;;;5089100;28;20044;-71
2021/12/08 00:37:43;;;;;;;11.65;4.75;;;3.10;99.90;;;;;;5087254;28;20118;-72
2021/12/08 00:40:12;;;;;;;11.93;4.95;;;3.20;99.90;;;;;;5053842;28;20059;-71
2021/12/08 00:42:37;;;;;;;12.30;4.47;;;3.20;99.90;;;;;;5080766;28;20785;-71
2021/12/08 00:45:09;;;;;;;11.63;4.22;;;3.30;99.90;;;;;;5079574;28;20084;-72
2021/12/08 00:47:35;;;;;;;9.80;4.40;;;3.30;99.90;;;;;;5070062;28;20550;-72
2021/12/08 00:50:02;;;;;;;14.07;4.30;;;3.30;99.90;;;;;;5064746;28;20060;-71
2021/12/08 00:52:31;;;;;;;10.50;4.47;;;3.30;99.90;;;;;;5068880;28;20040;-72
2021/12/08 00:55:01;;;;;;;14.52;4.80;;;3.40;99.90;;;;;;5067203;28;20059;-71
2021/12/08 00:57:27;;;;;;;11.57;4.07;;;3.40;99.90;;;;;;5080970;28;20065;-72
2021/12/08 00:59:52;;;;;;;13.98;4.28;;;3.40;99.90;;;;;;5086434;28;20079;-71
2021/12/08 01:02:18;;;;;;;12.68;4.20;;;3.40;99.90;;;;;;5065639;28;20075;-71
2021/12/08 01:04:44;;;;;;;12.23;3.60;;;3.40;99.90;;;;;;5074218;28;20051;-70
2021/12/08 01:07:10;;;;;;;12.63;4.28;;;3.70;99.90;;;;;;5067790;28;20055;-71
2021/12/08 01:09:36;;;;;;;11.95;4.30;;;3.50;99.90;;;;;;5077016;28;20047;-70
2021/12/08 01:12:04;;;;;;;8.18;3.65;;;4.10;99.90;;;;;;5044873;28;20389;-72
2021/12/08 01:14:34;;;;;;;11.52;4.38;;;3.50;99.90;;;;;;5066106;28;20052;-70
2021/12/08 01:17:01;;;;;;;11.45;4.03;;;3.50;99.90;;;;;;5079184;28;20055;-72
2021/12/08 01:19:27;;;;;;;12.75;4.10;;;3.50;99.90;;;;;;5082072;28;20044;-72
2021/12/08 01:21:54;;;;;;;8.30;4.15;;;3.50;99.90;;;;;;5086306;28;20051;-71
2021/12/08 01:24:20;;;;;;;8.23;4.05;;;4.20;99.90;;;;;;5083253;28;20404;-71
2021/12/08 01:26:47;;;;;;;11.15;4.13;;;3.50;99.90;;;;;;5067209;28;20049;-71
2021/12/08 01:29:13;;;;;;;6.88;3.35;;;3.70;99.90;;;;;;5080860;28;20409;-71
2021/12/08 01:31:41;;;;;;;10.15;3.53;;;3.60;99.90;;;;;;5080899;28;20064;-71
2021/12/08 01:34:09;;;;;;;9.00;3.60;;;3.50;99.90;;;;;;5078722;28;20054;-71
2021/12/08 01:36:36;;;;;;;9.32;3.60;;;3.90;99.90;;;;;;5083082;28;20433;-71
2021/12/08 01:39:04;;;;;;;8.65;3.70;;;3.50;99.90;;;;;;5084400;28;20048;-73
2021/12/08 01:41:29;;;;;;;11.63;3.50;;;3.50;99.90;;;;;;5069216;28;20044;-72
2021/12/08 01:46:39;;;;;;;10.02;3.28;;;3.60;99.90;;;;;;5072776;28;20686;-71
2021/12/08 01:49:05;;;;;;;6.75;3.85;;;3.60;99.90;;;;;;5065166;28;20109;-71
2021/12/08 01:51:32;;;;;;;8.77;3.65;;;3.60;99.90;;;;;;5070205;28;20040;-71
2021/12/08 01:54:01;;;;;;;8.85;3.65;;;3.70;99.90;;;;;;5059146;28;20485;-71
2021/12/08 01:56:29;;;;;;;7.53;3.22;;;3.70;99.90;;;;;;5082796;28;20270;-71
2021/12/08 01:58:56;;;;;;;8.32;3.58;;;3.70;99.90;;;;;;5063245;28;20040;-71
2021/12/08 02:01:25;;;;;;;9.50;3.55;;;4.10;99.90;;;;;;5085382;28;20048;-71
2021/12/08 02:03:51;;;;;;;10.13;4.00;;;3.70;99.90;;;;;;5067785;28;20044;-70
2021/12/08 02:06:19;;;;;;;6.50;3.60;;;4.70;99.90;;;;;;5054487;28;20047;-72
2021/12/08 02:08:47;;;;;;;8.13;3.63;;;4.10;99.90;;;;;;5086081;28;20115;-70
2021/12/08 02:11:13;;;;;;;6.68;3.05;;;3.70;99.90;;;;;;5065353;28;20040;-71
2021/12/08 02:13:40;;;;;;;16.00;4.30;;;3.70;99.90;;;;;;5078174;28;20097;-71
2021/12/08 02:16:16;;;;;;;10.73;3.50;;;3.90;99.90;;;;;;5071849;28;20554;-71
2021/12/08 02:18:48;;;;;;;6.43;3.35;;;3.90;99.90;;;;;;5086456;28;20056;-71
2021/12/08 02:21:23;;;;;;;6.57;3.97;;;3.80;99.90;;;;;;5058389;28;20102;-70
2021/12/08 02:23:49;;;;;;;10.80;4.20;;;3.80;99.90;;;;;;5084320;28;20462;-71
2021/12/08 02:26:17;;;;;;;10.35;3.92;;;3.90;99.90;;;;;;5080296;28;20155;-71
2021/12/08 02:28:46;;;;;;;8.85;3.85;;;4.60;99.90;;;;;;5078956;28;20074;-71
2021/12/08 02:31:15;;;;;;;12.00;4.63;;;3.90;99.90;;;;;;5060031;28;20048;-71
2021/12/08 02:49:48;;;;;;;6.95;3.92;;;4.00;99.90;;;;;;5058158;28;20135;-71
2021/12/08 02:52:15;;;;;;;9.10;4.20;;;4.10;99.90;;;;;;5090503;28;20073;-71
2021/12/08 02:54:43;;;;;;;10.82;4.53;;;4.30;99.90;;;;;;5086059;28;20044;-71
2021/12/08 02:57:10;;;;;;;10.73;4.00;;;4.00;99.90;;;;;;5074744;28;20359;-70
2021/12/08 02:59:37;;;;;;;7.38;3.97;;;4.00;99.90;;;;;;5065372;28;20048;-71
2021/12/08 03:02:03;;;;;;;8.82;4.28;;;4.00;99.90;;;;;;5065973;28;20434;-71
2021/12/08 03:04:29;;;;;;;8.15;4.68;;;4.00;99.90;;;;;;5090538;28;20074;-71
2021/12/08 03:06:54;;;;;;;9.95;4.75;;;4.10;99.90;;;;;;5090035;28;20557;-71
2021/12/08 03:09:20;;;;;;;9.77;4.85;;;4.60;99.90;;;;;;5086399;28;20041;-71
2021/12/08 03:11:54;;;;;;;9.77;4.57;;;4.10;99.90;;;;;;5074949;28;20135;-71
2021/12/08 03:14:21;;;;;;;8.15;4.50;;;4.00;99.90;;;;;;5064459;28;20386;-71
2021/12/08 03:16:52;;;;;;;7.97;4.20;;;4.60;99.90;;;;;;5086026;28;20036;-72
2021/12/08 03:19:22;;;;;;;9.07;4.43;;;4.80;99.90;;;;;;5082894;28;20092;-71
2021/12/08 03:21:48;;;;;;;9.68;4.93;;;4.10;99.90;;;;;;5079727;28;20470;-71
2021/12/08 03:24:23;;;;;;;8.50;4.75;;;4.20;99.90;;;;;;5068152;28;20059;-71
2021/12/08 03:29:25;;;;;;;11.00;5.20;;;4.20;99.90;;;;;;5086077;28;20122;-72
2021/12/08 03:31:53;;;;;;;7.57;4.63;;;4.20;99.90;;;;;;5083220;28;20059;-71
2021/12/08 03:34:21;;;;;;;10.75;5.30;;;4.20;99.90;;;;;;5037547;28;20143;-72
2021/12/08 03:36:47;;;;;;;8.40;4.72;;;4.80;99.90;;;;;;5091170;28;20469;-72
2021/12/08 03:39:13;;;;;;;12.10;5.50;;;4.60;99.90;;;;;;5088783;28;20052;-71
2021/12/08 03:41:41;;;;;;;11.85;5.00;;;4.30;99.90;;;;;;5089414;28;20044;-70
2021/12/08 03:44:07;;;;;;;13.00;5.72;;;4.30;99.90;;;;;;5085611;28;20048;-71
2021/12/08 03:46:39;;;;;;;12.35;5.32;;;4.30;99.90;;;;;;5080802;28;20048;-71
2021/12/08 03:49:06;;;;;;;8.85;4.82;;;5.40;99.90;;;;;;5089802;28;20397;-71
2021/12/08 03:51:32;;;;;;;10.40;5.40;;;4.40;99.90;;;;;;5090109;28;20055;-72
2021/12/08 03:53:57;;;;;;;9.30;5.10;;;4.40;99.90;;;;;;5083949;28;20047;-71
2021/12/08 03:56:23;;;;;;;14.07;5.80;;;4.50;99.90;;;;;;5109540;28;20497;-71
2021/12/08 03:58:49;;;;;;;11.63;4.78;;;4.50;99.90;;;;;;5073151;28;20293;-71
2021/12/08 04:01:15;;;;;;;9.25;5.38;;;4.70;99.90;;;;;;5072727;28;20473;-71
2021/12/08 04:03:48;;;;;;;11.55;5.93;;;4.50;99.90;;;;;;5089394;28;20055;-71
2021/12/08 04:06:27;;;;;;;12.70;5.32;;;4.50;99.90;;;;;;5089605;28;20056;-71
2021/12/08 04:08:56;;;;;;;13.52;5.40;;;4.50;99.90;;;;;;5074616;28;20044;-71
2021/12/08 04:11:23;;;;;;;7.07;4.95;;;4.50;99.90;;;;;;5056855;28;20376;-71
2021/12/08 04:13:56;;;;;;;12.57;6.07;;;4.60;99.90;;;;;;5088894;28;20056;-70
2021/12/08 04:16:28;;;;;;;9.88;5.70;;;4.60;99.90;;;;;;5089400;28;20504;-71
2021/12/08 04:18:57;;;;;;;9.45;5.65;;;4.70;99.90;;;;;;5090090;28;20040;-71
2021/12/08 04:21:23;;;;;;;7.32;5.57;;;4.80;99.90;;;;;;5075380;28;20051;-72
2021/12/08 04:23:49;;;;;;;10.40;5.18;;;4.80;99.90;;;;;;5076014;28;20424;-71
2021/12/08 04:26:21;;;;;;;10.30;6.25;;;4.80;99.90;;;;;;5092506;28;20040;-71
2021/12/08 04:28:47;;;;;;;10.65;6.43;;;4.80;99.90;;;;;;5093942;28;20052;-71
2021/12/08 04:31:18;;;;;;;12.75;7.13;;;4.80;99.90;;;;;;5076009;28;20052;-72
2021/12/08 04:33:55;;;;;;;9.73;6.45;;;5.20;99.90;;;;;;5093029;28;20131;-72
2021/12/08 04:36:23;;;;;;;10.90;6.78;;;4.90;99.90;;;;;;5080795;28;20056;-71
2021/12/08 04:38:54;;;;;;;13.52;7.13;;;4.90;99.90;;;;;;5058476;28;20048;-71
2021/12/08 04:41:29;;;;;;;11.05;7.47;;;4.90;99.90;;;;;;5093006;28;20052;-71
2021/12/08 04:52:38;;;;;;;14.00;7.60;;;4.90;99.90;;;;;;5092616;28;20052;-71
2021/12/08 05:04:01;;;;;;;15.45;8.60;;;5.00;99.90;;;;;;5092346;28;20072;-71
2021/12/08 05:09:30;;;;;;;14.63;8.90;;;5.30;99.90;;;;;;5069938;28;20476;-71
2021/12/08 05:12:04;;;;;;;18.60;9.10;;;5.20;99.90;;;;;;5091856;28;20044;-71
2021/12/08 05:14:39;;;;;;;15.15;9.00;;;5.20;99.90;;;;;;5092638;28;20104;-72
2021/12/08 05:17:12;;;;;;;20.05;9.82;;;5.30;99.90;;;;;;5075104;28;20052;-72
2021/12/08 05:19:40;;;;;;;15.07;9.27;;;5.30;99.90;;;;;;5092598;28;20504;-71
2021/12/08 05:22:18;;;;;;;16.17;8.98;;;5.50;99.90;;;;;;5075100;28;20119;-71
2021/12/08 05:24:48;;;;;;;13.30;9.27;;;5.30;99.90;;;;;;5086448;28;20059;-71
2021/12/08 05:27:44;;;;;;;14.68;9.30;;;5.40;99.90;;;;;;5091845;28;20101;-71
2021/12/08 05:30:19;;;;;;;18.23;9.68;;;5.40;99.90;;;;;;5092524;28;20067;-71
2021/12/08 05:32:48;;;;;;;15.65;9.98;;;5.40;99.90;;;;;;5091005;28;20044;-71
2021/12/08 05:35:16;;;;;;;15.00;9.63;;;5.50;99.90;;;;;;5075441;28;20443;-71
2021/12/08 05:37:42;;;;;;;16.65;10.10;;;5.50;99.90;;;;;;5091433;28;20055;-71
2021/12/08 05:40:30;;;;;;;17.73;11.07;;;5.50;99.90;;;;;;5092260;28;20601;-71
2021/12/08 05:42:56;;;;;;;17.40;10.25;;;5.50;99.90;;;;;;5090190;28;20455;-72
2021/12/08 05:45:22;;;;;;;21.42;10.27;;;5.50;99.90;;;;;;5074876;28;20865;-71
2021/12/08 05:47:51;;;;;;;16.90;9.90;;;5.50;99.90;;;;;;5091208;28;20056;-71
2021/12/08 05:50:24;;;;;;;16.50;9.52;;;6.00;99.90;;;;;;5091549;28;20109;-71
2021/12/08 05:52:52;;;;;;;15.20;9.75;;;5.40;99.90;;;;;;5091242;28;20080;-71
2021/12/08 05:55:18;;;;;;;14.80;8.45;;;5.80;99.90;;;;;;5091942;28;20081;-71
2021/12/08 05:57:45;;;;;;;15.80;9.73;;;5.40;99.90;;;;;;5091796;28;20044;-71
2021/12/08 06:00:35;;;;;;;15.63;10.30;;;5.40;99.90;;;;;;5091114;28;20052;-71
2021/12/08 06:03:01;;;;;;;17.67;11.25;;;5.50;99.90;;;;;;5073726;28;20138;-70
2021/12/08 06:05:29;;;;;;;16.92;10.77;;;5.50;99.90;;;;;;5090913;28;20533;-70
2021/12/08 06:07:56;;;;;;;15.95;9.68;;;5.50;99.90;;;;;;5090810;28;20051;-72
2021/12/08 06:10:31;;;;;;;16.08;10.05;;;5.50;99.90;;;;;;5089887;28;20734;-71
2021/12/08 06:12:58;;;;;;;15.40;8.82;;;5.50;99.90;;;;;;5091628;28;20281;-71
2021/12/08 06:15:24;;;;;;;16.92;9.20;;;5.50;99.90;;;;;;5090408;28;20047;-72
2021/12/08 06:17:52;;;;;;;12.95;8.38;;;5.40;99.90;;;;;;5074034;28;20097;-72
2021/12/08 06:20:18;;;;;;;13.50;8.27;;;5.40;99.90;;;;;;5090282;28;20507;-71
2021/12/08 06:22:46;;;;;;;12.43;8.10;;;5.30;99.90;;;;;;5090016;28;20047;-71
2021/12/08 06:25:15;;;;;;;15.82;8.15;;;5.30;99.90;;;;;;5086440;28;20516;-71
2021/12/08 06:27:41;;;;;;;15.77;7.65;;;5.40;99.90;;;;;;5090466;28;20090;-71
2021/12/08 06:30:16;;;;;;;15.82;7.50;;;5.30;99.90;;;;;;5089960;28;20044;-71
2021/12/08 06:32:42;;;;;;;14.60;7.53;;;5.70;99.90;;;;;;5089624;28;20492;-71
2021/12/08 06:35:12;;;;;;;17.25;8.73;;;5.20;99.90;;;;;;5090568;28;20036;-72
2021/12/08 06:37:41;;;;;;;20.13;8.48;;;5.20;99.90;;;;;;5090493;28;20078;-71
2021/12/08 06:40:22;;;;;;;12.90;8.23;;;5.20;99.90;;;;;;5089258;28;20504;-71
2021/12/08 06:42:50;;;;;;;14.05;8.60;;;5.20;99.90;;;;;;5089211;28;20046;-71
2021/12/08 06:45:23;;;;;;;13.95;8.50;;;5.50;99.90;;;;;;5090094;28;20051;-71
2021/12/08 06:47:51;;;;;;;15.10;7.70;;;5.20;99.90;;;;;;5090107;28;20056;-71
2021/12/08 06:50:24;;;;;;;12.05;6.43;;;5.30;99.90;;;;;;5090009;28;20484;-71
2021/12/08 06:52:50;;;;;;;17.05;8.20;;;5.30;99.90;;;;;;5088636;28;20040;-73
2021/12/08 06:55:49;;;;;;;14.18;7.35;;;5.30;99.90;;;;;;5090114;28;20124;-71
2021/12/08 06:58:24;;;;;;;17.25;8.02;;;5.30;99.90;;;;;;5089943;28;20043;-71
2021/12/08 07:03:52;;;;;;;14.13;8.48;;;5.30;99.90;;;;;;5089455;28;20047;-70
2021/12/08 07:09:12;;;;;;;14.30;7.68;;;5.40;99.90;;;;;;5075005;28;20087;-71
2021/12/08 07:11:39;;;;;;;14.32;7.43;;;5.40;99.90;;;;;;5089105;28;20059;-71
2021/12/08 07:14:06;;;;;;;13.82;7.88;;;5.40;99.90;;;;;;5073259;28;20109;-72
2021/12/08 07:16:38;;;;;;;13.25;7.00;;;5.40;99.90;;;;;;5089779;28;20534;-71
2021/12/08 07:19:23;;;;;;;13.60;7.43;;;5.40;99.90;;;;;;5073023;28;20051;-71
2021/12/08 07:21:53;;;;;;;14.38;7.22;;;5.40;99.90;;;;;;5088711;28;20048;-71
2021/12/08 07:24:29;;;;;;;16.58;7.13;;;5.40;99.90;;;;;;5089898;28;20102;-71
2021/12/08 07:27:00;;;;;;;12.93;7.57;;;5.50;99.90;;;;;;5089791;28;20133;-71
2021/12/08 07:29:28;;;;;;;12.75;7.13;;;5.20;99.90;;;;;;5089925;28;20079;-71
2021/12/08 07:31:59;;;;;;;12.95;7.20;;;5.30;99.90;;;;;;5088345;28;20141;-71
2021/12/08 07:34:26;;;;;;;13.68;7.65;;;5.20;99.90;;;;;;5088998;28;20051;-71
2021/12/08 07:36:59;;;;;;;12.90;7.43;;;5.20;99.90;;;;;;5089743;28;20055;-71
2021/12/08 07:39:32;;;;;;;13.45;7.63;;;5.10;99.90;;;;;;5086326;28;20040;-71
2021/12/08 07:42:04;;;;;;;12.77;7.38;;;5.10;99.90;;;;;;5089205;28;20066;-71
2021/12/08 07:44:30;;;;;;;12.15;7.15;;;5.10;99.90;;;;;;5089343;28;20119;-71
2021/12/08 07:47:09;;;;;;;13.05;6.60;;;5.10;99.90;;;;;;5089282;28;20052;-70
2021/12/08 07:49:40;;;;;;;15.30;7.05;;;5.20;99.90;;;;;;5089519;28;20079;-70
2021/12/08 07:52:10;;;;;;;;;;;5.10;99.90;;;;;;5072406;28;20078;-71
2021/12/08 07:54:36;;;;;;;10.60;5.93;;;5.20;99.90;;;;;;5089354;28;20007;-71
2021/12/08 07:57:08;;;;;;;7.93;5.72;;;5.20;99.90;;;;;;5076743;28;20125;-72
2021/12/08 07:59:36;;;;;;;10.23;5.72;;;5.20;99.90;;;;;;5093028;28;20071;-70
2021/12/08 08:02:07;;;;;;;11.63;5.95;;;5.20;99.90;;;;;;5075917;28;20052;-71
2021/12/08 08:04:35;;;;;;;12.10;6.10;;;5.30;99.90;;;;;;5074336;28;20048;-72
2021/12/08 08:07:01;;;;;;;12.40;6.13;;;5.40;99.90;;;;;;5093035;28;20113;-71
2021/12/08 08:09:38;;;;;;;10.95;6.13;;;5.30;99.90;;;;;;5075653;28;20067;-72
2021/12/08 08:12:07;;;;;;;11.27;5.60;;;5.30;99.90;;;;;;5091624;28;20055;-72
2021/12/08 08:14:39;;;;;;;11.88;6.20;;;5.30;99.90;;;;;;5092801;28;20450;-71
2021/12/08 08:17:14;;;;;;;11.35;6.15;;;5.30;99.90;;;;;;5093184;28;20048;-71
2021/12/08 08:19:43;;;;;;;11.52;6.15;;;5.30;99.90;;;;;;5114177;27;20141;-71
2021/12/08 08:22:12;;;;;;;12.40;6.00;;;5.30;99.90;;;;;;5088654;28;20048;-70
2021/12/08 08:24:38;;;;;;;10.75;5.57;;;5.30;99.90;;;;;;5077225;28;20074;-70
2021/12/08 08:27:07;;;;;;;11.85;5.68;;;5.30;99.90;;;;;;5093716;28;20056;-70
2021/12/08 08:29:34;;;;;;;10.55;4.90;;;5.50;99.90;;;;;;5092894;28;20048;-71
2021/12/08 08:32:05;;;;;;;12.63;4.80;;;5.30;99.90;;;;;;5063906;28;20091;-70
2021/12/08 08:34:36;;;;;;;12.07;4.80;;;5.40;99.90;;;;;;5115867;27;20084;-70
2021/12/08 08:37:04;;;;;;;11.67;4.73;;;5.50;99.90;;;;;;5107893;28;20052;-72
2021/12/08 08:39:36;;;;;;;7.55;4.07;;;5.50;99.90;;;;;;5075925;28;20646;-71
2021/12/08 08:42:07;;;;;;;8.48;4.35;;;6.40;99.90;;;;;;5092690;28;20400;-71
2021/12/08 08:44:41;;;;;;;10.48;4.75;;;5.50;99.90;;;;;;5092934;28;20048;-71
2021/12/08 08:47:12;;;;;;;9.20;4.03;;;5.50;99.90;;;;;;5090514;28;20052;-71
2021/12/08 08:49:39;;;;;;;6.82;3.28;;;5.50;99.90;;;;;;5107819;28;20048;-72
2021/12/08 08:52:11;;;;;;;7.07;3.70;;;5.60;99.90;;;;;;5056250;28;20425;-71
2021/12/08 08:54:42;;;;;;;8.63;3.45;;;5.60;99.90;;;;;;5092383;28;20044;-72
2021/12/08 08:57:21;;;;;;;10.45;3.67;;;5.70;99.90;;;;;;5092466;28;20065;-72
2021/12/08 08:59:55;;;;;;;8.50;3.50;;;5.70;99.90;;;;;;5108341;28;20047;-70
2021/12/08 09:02:37;;;;;;;10.73;3.78;;;5.90;99.90;;;;;;5091853;28;20052;-70
2021/12/08 09:05:10;;;;;;;9.50;3.20;;;5.80;99.90;;;;;;5076333;28;20043;-72
2021/12/08 09:07:40;;;;;;;9.45;3.45;;;5.80;99.90;;;;;;5090336;28;20473;-70
2021/12/08 09:10:23;;;;;;;6.25;3.22;;;5.90;99.90;;;;;;5087671;28;20387;-71
2021/12/08 09:12:57;;;;;;;6.63;3.05;;;5.90;99.90;;;;;;5088798;28;20569;-71
2021/12/08 09:15:32;;;;;;;6.95;3.40;;;5.90;99.90;;;;;;5082313;28;20063;-71
2021/12/08 09:18:21;;;;;;;8.05;2.60;;;6.30;99.90;;;;;;5092029;28;20123;-70
2021/12/08 09:20:58;;;;;;;7.63;2.38;;;6.20;99.90;;;;;;5103521;28;20102;-70
2021/12/08 09:23:39;;;;;;;8.93;2.50;;;6.10;99.90;;;;;;5090728;28;20441;-71
2021/12/08 09:26:09;;;;;;;7.78;2.50;;;6.20;99.90;;;;;;5088451;28;20070;-70
2021/12/08 09:28:41;;;;;;;6.15;2.20;;;6.30;99.90;;;;;;5065193;28;20499;-70
2021/12/08 09:31:19;;;;;;;7.50;2.08;;;6.40;99.90;;;;;;5090993;28;20059;-70
2021/12/08 09:33:57;;;;;;;7.18;1.83;;;6.50;99.90;;;;;;5087487;28;20048;-71
2021/12/08 09:36:29;;;;;;;8.20;2.13;;;6.60;99.90;;;;;;5074426;28;20096;-71
2021/12/08 09:39:03;;;;;;;8.80;2.20;;;6.60;99.90;;;;;;5079829;28;20144;-71
2021/12/08 09:41:42;;;;;;;7.97;2.10;;;6.80;99.90;;;;;;5091162;28;20040;-70
2021/12/08 09:44:18;;;;;;;12.07;2.15;;;7.00;99.90;;;;;;5074695;28;20101;-70
2021/12/08 09:46:47;;;;;;;9.38;2.63;;;7.10;99.90;;;;;;5074068;28;20055;-70
2021/12/08 09:49:17;;;;;;;9.68;2.80;;;7.10;99.90;;;;;;5091500;28;20048;-71
2021/12/08 09:51:43;;;;;;;7.75;2.10;;;7.10;99.90;;;;;;5091366;28;20044;-70
2021/12/08 09:54:09;;;;;;;8.68;1.98;;;7.00;99.90;;;;;;5080856;28;20052;-70
2021/12/08 09:56:35;;;;;;;7.35;2.22;;;6.90;99.90;;;;;;5091418;28;20040;-70
2021/12/08 09:59:04;;;;;;;10.98;2.15;;;6.90;99.90;;;;;;5091366;28;20044;-71
2021/12/08 10:01:30;;;;;;;8.73;2.55;;;6.80;99.90;;;;;;5091262;28;20052;-71
2021/12/08 10:03:56;;;;;;;10.18;2.65;;;6.80;99.90;;;;;;5091429;28;20051;-71
2021/12/08 10:06:24;;;;;;;9.90;2.40;;;6.80;99.90;;;;;;5091297;28;20759;-70
2021/12/08 10:08:51;;;;;;;8.55;2.53;;;6.80;99.90;;;;;;5090761;28;20480;-71
2021/12/08 10:11:18;;;;;;;9.88;2.22;;;6.80;99.90;;;;;;5091153;28;20075;-70
2021/12/08 10:13:45;;;;;;;8.45;2.35;;;6.80;99.90;;;;;;5074528;28;20408;-71
2021/12/08 10:16:14;;;;;;;7.30;2.45;;;6.90;99.90;;;;;;5091082;28;20052;-70
2021/12/08 10:18:42;;;;;;;6.85;2.13;;;7.30;99.90;;;;;;5091012;28;20055;-71
2021/12/08 10:21:08;;;;;;;10.77;2.47;;;6.90;99.90;;;;;;5091432;28;20052;-71
2021/12/08 10:23:39;;;;;;;7.15;2.20;;;7.10;99.90;;;;;;5091208;28;20110;-70
2021/12/08 10:26:06;;;;;;;7.97;3.05;;;7.60;99.90;;;;;;5077322;28;20052;-72
2021/12/08 10:28:38;;;;;;;8.90;2.60;;;6.90;99.90;;;;;;5091193;28;20105;-72
2021/12/08 10:31:12;;;;;;;11.65;3.53;;;6.90;99.90;;;;;;5090627;28;20044;-70
2021/12/08 10:36:42;;;;;;;7.90;2.22;;;6.90;99.90;;;;;;5091016;28;20109;-71
2021/12/08 10:39:09;;;;;;;6.28;2.30;;;6.90;99.90;;;;;;5090835;28;20056;-71
2021/12/08 10:41:54;;;;;;;6.75;2.70;;;7.00;99.90;;;;;;5090480;28;20043;-71
2021/12/08 10:44:28;;;;;;;7.00;2.90;;;7.20;99.90;;;;;;5091060;28;20126;-72
2021/12/08 10:46:58;;;;;;;10.43;2.75;;;7.30;99.90;;;;;;5090373;28;20052;-72
2021/12/08 10:54:45;;;;;;;10.07;2.72;;;7.50;99.90;;;;;;5090853;28;20138;-71
2021/12/08 10:57:25;;;;;;;6.20;2.90;;;7.60;99.90;;;;;;5090748;28;20405;-71
2021/12/08 11:00:13;;;;;;;7.00;2.67;;;7.60;99.90;;;;;;5090045;28;20554;-71
2021/12/08 11:02:53;;;;;;;11.63;2.72;;;8.00;99.90;;;;;;5082472;28;20063;-71
2021/12/08 11:05:39;;;;;;;10.65;2.90;;;7.70;99.90;;;;;;5073951;28;20051;-70
2021/12/08 11:08:34;;;;;;;9.05;2.90;;;7.80;99.90;;;;;;5090471;28;20116;-70
2021/12/08 11:11:11;;;;;;;8.55;2.55;;;7.90;99.90;;;;;;5084890;28;20086;-70
2021/12/08 11:13:43;;;;;;;7.72;2.85;;;7.90;99.90;;;;;;5073680;28;20139;-71
2021/12/08 11:16:22;;;;;;;9.02;2.30;;;7.90;99.90;;;;;;5090652;28;20052;-70
2021/12/08 11:18:50;;;;;;;6.18;2.70;;;7.80;99.90;;;;;;5090705;28;20048;-70
2021/12/08 11:21:29;;;;;;;12.20;2.97;;;7.70;99.90;;;;;;5089463;28;20135;-70
2021/12/08 11:23:57;;;;;;;7.15;2.13;;;7.80;99.90;;;;;;5090258;28;20048;-71
2021/12/08 11:26:37;;;;;;;7.88;2.35;;;8.00;99.90;;;;;;5090272;28;20090;-72
2021/12/08 11:29:08;;;;;;;8.60;2.38;;;8.10;99.90;;;;;;5089400;28;20107;-72
2021/12/08 11:31:44;;;;;;;11.27;3.03;;;8.40;99.90;;;;;;5093341;28;20048;-70
2021/12/08 11:34:38;;;;;;;5.57;2.65;;;8.50;99.90;;;;;;5091255;28;20043;-70
2021/12/08 11:37:13;;;;;;;12.05;2.85;;;8.60;99.90;;;;;;5090540;28;20051;-73
2021/12/08 11:39:55;;;;;;;9.80;2.25;;;8.60;99.90;;;;;;5088966;28;20094;-71
2021/12/08 11:42:29;;;;;;;6.60;2.50;;;8.70;99.90;;;;;;5090961;28;20374;-70
2021/12/08 11:44:57;;;;;;;10.60;2.72;;;8.60;99.90;;;;;;5093941;28;20044;-70
2021/12/08 11:47:32;;;;;;;8.23;3.08;;;8.40;99.90;;;;;;5075875;28;20063;-72
2021/12/08 11:50:01;;;;;;;6.80;2.38;;;8.60;99.90;;;;;;5096412;28;20564;-71
2021/12/08 11:52:32;;;;;;;7.10;2.50;;;8.30;99.90;;;;;;5093181;28;20044;-71
2021/12/08 11:55:01;;;;;;;5.90;2.40;;;8.10;99.90;;;;;;5077372;28;20136;-70
2021/12/08 11:57:42;;;;;;;10.85;2.95;;;8.00;99.90;;;;;;5093618;28;20378;-70
2021/12/08 12:00:18;;;;;;;10.32;2.40;;;7.90;99.90;;;;;;5094168;28;20040;-70
2021/12/08 12:02:53;;;;;;;6.30;2.63;;;7.80;99.90;;;;;;5093219;28;20489;-70
2021/12/08 12:05:46;;;;;;;6.05;2.65;;;7.70;99.90;;;;;;5091429;28;20052;-71
2021/12/08 12:08:18;;;;;;;7.82;2.70;;;7.70;99.90;;;;;;5092320;28;20063;-71
2021/12/08 12:10:46;;;;;;;7.63;3.10;;;7.90;99.90;;;;;;5094095;28;20051;-70
2021/12/08 12:13:13;;;;;;;8.20;3.47;;;8.00;99.90;;;;;;5076417;28;20105;-70
2021/12/08 12:15:50;;;;;;;10.27;3.15;;;7.90;99.90;;;;;;5092617;28;20040;-70
2021/12/08 12:18:21;;;;;;;7.90;3.08;;;7.80;99.90;;;;;;5076707;28;20056;-70
2021/12/08 12:20:55;;;;;;;8.30;2.90;;;7.70;99.90;;;;;;5077110;28;20044;-70
2021/12/08 12:23:58;;;;;;;7.20;3.20;;;7.50;99.90;;;;;;5093209;28;20052;-70
2021/12/08 12:26:58;;;;;;;9.45;2.80;;;7.50;99.90;;;;;;5090505;28;20044;-70
2021/12/08 12:29:24;;;;;;;10.40;2.78;;;7.50;99.90;;;;;;5092621;28;20040;-71
2021/12/08 12:32:02;;;;;;;8.40;2.80;;;7.40;99.90;;;;;;5092942;28;20048;-70
2021/12/08 12:34:31;;;;;;;4.78;2.30;;;7.50;99.90;;;;;;5093367;28;20489;-71
2021/12/08 12:36:58;;;;;;;9.95;2.63;;;7.40;99.90;;;;;;5091568;28;20055;-70
2021/12/08 12:39:27;;;;;;;8.25;2.70;;;7.40;99.90;;;;;;5075780;28;20077;-72
2021/12/08 12:42:15;;;;;;;7.95;2.65;;;7.40;99.90;;;;;;5090110;28;20052;-71
2021/12/08 12:44:45;;;;;;;8.15;2.47;;;7.40;99.90;;;;;;5093042;28;20499;-71
2021/12/08 12:47:19;;;;;;;6.78;2.63;;;7.40;99.90;;;;;;5092502;28;20056;-71
2021/12/08 12:50:08;;;;;;;7.90;2.65;;;7.30;99.90;;;;;;5093116;28;20056;-70
2021/12/08 12:52:39;;;;;;;7.00;2.50;;;7.30;99.90;;;;;;5063127;28;20125;-70
2021/12/08 12:55:12;;;;;;;11.30;3.17;;;7.20;99.90;;;;;;5077324;28;20051;-71
2021/12/08 12:57:59;;;;;;;7.90;2.63;;;7.20;99.90;;;;;;5091828;28;20460;-71
2021/12/08 13:00:37;;;;;;;8.05;2.70;;;7.20;99.90;;;;;;5090390;28;20205;-71
2021/12/08 13:03:04;;;;;;;9.20;2.90;;;7.20;99.90;;;;;;5093218;28;20047;-72
2021/12/08 13:05:50;;;;;;;7.47;2.90;;;7.20;99.90;;;;;;5056003;28;20083;-70
2021/12/08 13:08:40;;;;;;;6.47;2.20;;;7.10;99.90;;;;;;5073601;28;20101;-70
2021/12/08 13:11:22;;;;;;;8.90;2.65;;;7.10;99.90;;;;;;5090784;28;20072;-70
2021/12/08 13:13:54;;;;;;;7.63;2.72;;;7.20;99.90;;;;;;5094421;28;20068;-70
2021/12/08 13:16:29;;;;;;;8.98;2.30;;;7.10;99.90;;;;;;5091393;28;20051;-71
2021/12/08 13:19:05;;;;;;;3.90;1.80;;;7.10;99.90;;;;;;5071524;28;20119;-71
2021/12/08 13:21:46;;;;;;;9.10;2.65;;;7.10;99.90;;;;;;5091019;28;20051;-70
2021/12/08 13:24:32;;;;;;;7.57;2.47;;;7.10;99.90;;;;;;5088205;28;20074;-70
2021/12/08 13:27:05;;;;;;;7.18;2.17;;;7.00;99.90;;;;;;5090352;28;20389;-70
2021/12/08 13:29:33;;;;;;;6.05;2.55;;;7.10;99.90;;;;;;5091999;28;20158;-70
2021/12/08 13:32:09;;;;;;;12.02;2.35;;;7.00;99.90;;;;;;5057364;28;20066;-71
2021/12/08 13:34:37;;;;;;;4.47;2.10;;;7.00;99.90;;;;;;5072942;28;20074;-69
2021/12/08 13:37:16;;;;;;;5.50;1.98;;;7.10;99.90;;;;;;5072162;28;20048;-71
2021/12/08 13:39:44;;;;;;;8.98;2.33;;;7.00;99.90;;;;;;5075056;28;20125;-70
2021/12/08 13:42:32;;;;;;;4.63;2.00;;;7.10;99.90;;;;;;5072833;28;20508;-70
2021/12/08 13:45:10;;;;;;;6.65;2.30;;;7.20;99.90;;;;;;5091098;28;20047;-71
2021/12/08 13:47:38;;;;;;;8.55;2.20;;;7.20;99.90;;;;;;5090235;28;20141;-71
2021/12/08 13:50:19;;;;;;;11.10;2.47;;;7.30;99.90;;;;;;5075251;28;20048;-70
2021/12/08 13:52:54;;;;;;;9.73;2.50;;;7.20;99.90;;;;;;5090352;28;20503;-71
2021/12/08 13:55:25;;;;;;;4.03;2.40;;;7.10;99.90;;;;;;5091080;28;20044;-70
2021/12/08 13:58:07;;;;;;;5.68;2.20;;;7.10;99.90;;;;;;5090841;28;20649;-70
2021/12/08 14:00:41;;;;;;;3.63;1.80;;;7.10;99.90;;;;;;5074051;28;20047;-74
2021/12/08 14:03:23;;;;;;;6.60;2.35;;;7.10;99.90;;;;;;5090333;28;20044;-70
2021/12/08 14:05:50;;;;;;;7.63;2.15;;;7.00;99.90;;;;;;5072123;28;20048;-71
2021/12/08 14:08:24;;;;;;;9.00;2.40;;;7.00;99.90;;;;;;5089987;28;20101;-70
2021/12/08 14:11:00;;;;;;;6.00;1.98;;;7.00;99.90;;;;;;5083637;28;20076;-72
2021/12/08 14:13:30;;;;;;;5.13;2.47;;;7.00;99.90;;;;;;5074008;28;20135;-70